Time;durP1;ratioP1;P1;durP2;ratioP2;P2;SDS_P1;SDS_P2;PMS_P1;PMS_P2;Temp;Humidity;BMP_temperature;BMP_pressure;BME280_temperature;BME280_humidity;BME280_pressure;Samples;Min_cycle;Max_cycle;Signal;HPM_P1;HPM_P2
2022/04/22 00:00:07;;;;;;;;;7.33;5.67;;;;;15.94;41.48;100042.72;5056667;28;45506;-43
2022/04/22 00:02:32;;;;;;;;;4.67;4.67;;;;;15.85;41.44;100025.97;5058113;28;45529;-43
2022/04/22 00:04:58;;;;;;;;;5.67;5.00;;;;;15.93;41.07;100039.22;5057827;28;45316;-42
2022/04/22 00:07:23;;;;;;;;;6.00;6.00;;;;;15.91;41.42;100037.75;5057747;28;45322;-42
2022/04/22 00:09:49;;;;;;;;;9.67;4.00;;;;;15.81;41.18;100013.16;5057825;28;45364;-43
2022/04/22 00:12:14;;;;;;;;;5.00;5.00;;;;;15.86;41.03;100029.47;5057928;28;45333;-43
2022/04/22 00:14:39;;;;;;;;;10.00;6.33;;;;;15.83;41.82;100041.41;5057583;28;45547;-42
2022/04/22 00:17:05;;;;;;;;;8.00;5.33;;;;;15.69;40.90;100024.41;5057747;28;45419;-42
2022/04/22 00:19:31;;;;;;;;;6.00;5.00;;;;;15.74;41.41;100039.09;5057877;28;45246;-42
2022/04/22 00:21:57;;;;;;;;;8.67;6.33;;;;;15.69;41.41;100032.47;5057756;28;45215;-43
2022/04/22 00:24:22;;;;;;;;;9.33;6.00;;;;;15.54;42.26;100014.81;5057511;28;45294;-42
2022/04/22 00:26:48;;;;;;;;;8.00;8.00;;;;;15.62;42.09;100031.56;5057161;28;45196;-42
2022/04/22 00:29:13;;;;;;;;;7.33;4.00;;;;;15.60;41.93;100032.81;5057726;28;45313;-42
2022/04/22 00:31:39;;;;;;;;;9.00;9.00;;;;;15.57;41.74;100033.19;5057777;28;45316;-42
2022/04/22 00:34:04;;;;;;;;;4.00;4.00;;;;;15.53;42.36;100027.38;5057191;28;46463;-42
2022/04/22 00:36:30;;;;;;;;;6.33;5.00;;;;;15.51;42.46;100028.63;5057693;28;45330;-43
2022/04/22 00:38:56;;;;;;;;;4.00;4.00;;;;;15.44;42.31;100026.72;5057662;28;45258;-43
2022/04/22 00:41:21;;;;;;;;;5.67;5.33;;;;;15.42;42.04;100019.88;5058111;28;45799;-44
2022/04/22 00:43:49;;;;;;;;;8.33;6.00;;;;;15.42;42.08;100025.22;5057777;28;46235;-43
2022/04/22 00:46:15;;;;;;;;;7.33;5.00;;;;;15.40;42.68;100019.25;5057733;28;45506;-43
2022/04/22 00:48:41;;;;;;;;;1.67;1.67;;;;;15.36;42.52;100012.63;5057844;28;45194;-43
2022/04/22 00:51:08;;;;;;;;;6.00;5.00;;;;;15.39;42.48;100021.13;5057394;28;45269;-45
2022/04/22 00:53:37;;;;;;;;;5.00;5.00;;;;;15.36;42.75;100015.31;5055347;28;46106;-43
2022/04/22 00:56:05;;;;;;;;;6.00;6.00;;;;;15.31;42.48;100013.22;5057135;28;45383;-42
2022/04/22 00:58:31;;;;;;;;;6.00;5.33;;;;;15.31;43.19;100023.94;5056709;28;45214;-42
2022/04/22 01:00:57;;;;;;;;;6.33;5.00;;;;;15.29;42.82;100017.09;5056159;28;45332;-41
2022/04/22 01:03:22;;;;;;;;;5.67;5.67;;;;;14.85;42.70;99948.59;5056903;28;45274;-43
2022/04/22 01:09:47;;;;;;;;;9.00;9.00;;;;;15.24;42.90;100012.34;5057047;28;45301;-42
2022/04/22 01:11:36;;;;;;;;;8.67;4.33;;;;;15.22;43.16;100009.03;5056820;28;45241;-42
2022/04/22 01:14:06;;;;;;;;;5.33;5.33;;;;;15.21;43.40;100010.03;5056539;28;47225;-44
2022/04/22 01:16:33;;;;;;;;;9.00;6.00;;;;;15.18;43.27;100002.41;5056677;28;45377;-42
2022/04/22 01:18:58;;;;;;;;;9.00;6.00;;;;;15.21;43.11;100010.03;5056810;28;45317;-42
2022/04/22 01:21:24;;;;;;;;;7.00;6.00;;;;;15.19;43.34;100004.88;5056874;28;45304;-43
2022/04/22 01:23:50;;;;;;;;;6.00;6.00;;;;;15.16;43.06;99999.91;5056553;28;45290;-43
2022/04/22 01:26:15;;;;;;;;;7.33;5.00;;;;;15.17;43.40;100003.44;5056597;28;45368;-43
2022/04/22 01:28:41;;;;;;;;;8.00;7.67;;;;;15.15;43.06;99998.25;5056596;28;45395;-42
2022/04/22 01:31:07;;;;;;;;;6.00;6.00;;;;;15.12;43.54;99997.81;5056825;28;45182;-43
2022/04/22 01:33:33;;;;;;;;;7.33;7.33;;;;;15.13;43.67;99999.50;5056299;28;45401;-42
2022/04/22 01:35:58;;;;;;;;;5.00;4.00;;;;;15.12;43.84;99995.97;5056471;28;45306;-43
2022/04/22 01:38:24;;;;;;;;;6.00;6.00;;;;;15.08;43.61;99989.34;5056659;28;45403;-42
2022/04/22 01:40:50;;;;;;;;;8.00;7.33;;;;;15.08;43.90;99986.66;5057046;28;45348;-42
2022/04/22 01:43:15;;;;;;;;;6.00;6.00;;;;;15.02;44.01;99981.25;5056205;28;46520;-43
2022/04/22 01:45:41;;;;;;;;;9.67;8.67;;;;;14.95;44.18;99973.16;5055066;28;45333;-42
2022/04/22 01:48:06;;;;;;;;;9.00;8.00;;;;;15.02;44.21;99983.94;5056478;28;45396;-42
2022/04/22 01:50:32;;;;;;;;;6.00;5.33;;;;;15.02;43.75;99981.25;5056711;28;45423;-41
2022/04/22 01:52:58;;;;;;;;;9.33;5.67;;;;;14.95;44.39;99978.53;5056571;28;45713;-42
2022/04/22 01:55:24;;;;;;;;;10.00;8.67;;;;;14.93;44.29;99967.19;5056316;28;45499;-41
2022/04/22 01:57:49;;;;;;;;;10.33;7.00;;;;;14.96;44.27;99985.56;5056391;28;45322;-43
2022/04/22 02:00:15;;;;;;;;;7.00;5.00;;;;;14.94;44.30;99984.91;5056238;28;45476;-43
2022/04/22 02:02:40;;;;;;;;;6.67;6.67;;;;;14.93;44.07;99977.91;5054635;28;47438;-42
2022/04/22 02:05:06;;;;;;;;;10.00;6.00;;;;;14.91;44.49;99978.06;5054991;28;46218;-42
2022/04/22 02:07:32;;;;;;;;;7.33;7.00;;;;;14.87;44.18;99967.94;5056149;28;45268;-42
2022/04/22 02:09:57;;;;;;;;;5.00;5.00;;;;;14.85;43.97;99970.00;5056741;28;45350;-43
2022/04/22 02:12:23;;;;;;;;;7.33;6.00;;;;;14.83;44.50;99972.88;5057667;28;47174;-43
2022/04/22 02:14:48;;;;;;;;;4.33;4.33;;;;;14.78;44.32;99966.44;5059445;28;45368;-43
2022/04/22 02:17:13;;;;;;;;;10.00;9.00;;;;;14.81;44.64;99974.09;5059796;28;45334;-42
2022/04/22 02:19:40;;;;;;;;;7.00;7.00;;;;;14.78;44.80;99974.47;5059756;28;45457;-43
2022/04/22 02:22:05;;;;;;;;;8.33;8.00;;;;;14.72;44.20;99971.53;5059300;28;46172;-44
2022/04/22 02:24:31;;;;;;;;;9.00;7.33;;;;;14.70;44.76;99973.56;5059195;28;45356;-43
2022/04/22 02:29:40;;;;;;;;;9.67;7.33;;;;;14.66;45.30;99969.66;5059480;28;45460;-43
2022/04/22 02:32:06;;;;;;;;;6.00;5.67;;;;;14.65;44.83;99967.97;5059205;28;46022;-43
2022/04/22 02:34:31;;;;;;;;;9.00;9.00;;;;;14.60;44.80;99959.69;5059138;28;45412;-43
2022/04/22 02:36:57;;;;;;;;;8.67;7.33;;;;;14.61;45.34;99956.00;5059371;28;45486;-43
2022/04/22 02:39:22;;;;;;;;;4.67;4.67;;;;;14.58;45.09;99969.78;5059607;28;45376;-41
2022/04/22 02:47:15;;;;;;;;;10.00;7.00;;;;;14.50;45.86;99961.88;5059204;28;45313;-42
2022/04/22 02:49:44;;;;;;;;;10.00;9.33;;;;;14.45;45.49;99958.88;5059196;28;45333;-43
2022/04/22 02:52:14;;;;;;;;;7.00;7.00;;;;;14.39;45.42;99949.78;5058862;28;47080;-43
2022/04/22 02:54:40;;;;;;;;;8.00;7.33;;;;;14.39;45.53;99959.66;5058780;28;45237;-43
2022/04/22 02:57:07;;;;;;;;;3.00;3.00;;;;;14.36;45.87;99960.84;5059163;28;45353;-43
2022/04/22 02:59:34;;;;;;;;;8.33;8.00;;;;;14.33;45.90;99950.56;5058804;28;45499;-42
2022/04/22 03:02:00;;;;;;;;;10.00;10.00;;;;;14.27;45.96;99951.31;5058611;28;46413;-44
2022/04/22 03:04:26;;;;;;;;;8.33;8.33;;;;;14.23;45.76;99950.03;5058881;28;45213;-42
2022/04/22 03:06:52;;;;;;;;;9.67;7.00;;;;;14.21;45.93;99946.72;5059313;28;45281;-42
2022/04/22 03:09:17;;;;;;;;;10.33;9.67;;;;;14.16;46.14;99944.63;5059028;28;45373;-42
2022/04/22 03:11:43;;;;;;;;;12.00;7.33;;;;;14.17;46.09;99940.94;5058709;28;45956;-42
2022/04/22 03:14:08;;;;;;;;;8.33;7.00;;;;;14.15;45.96;99944.78;5058898;28;45520;-43
2022/04/22 03:16:35;;;;;;;;;7.00;7.00;;;;;14.13;46.75;99947.66;5058993;28;45551;-43
2022/04/22 03:19:00;;;;;;;;;10.00;10.00;;;;;14.10;46.35;99950.72;5059104;28;45468;-43
2022/04/22 03:21:26;;;;;;;;;15.00;7.33;;;;;14.07;46.53;99948.41;5058429;28;45889;-44
2022/04/22 03:23:52;;;;;;;;;10.00;8.00;;;;;14.07;45.91;99950.25;5057694;28;45373;-42
2022/04/22 03:26:18;;;;;;;;;9.33;9.33;;;;;14.03;46.53;99948.97;5058752;28;45283;-42
2022/04/22 03:28:44;;;;;;;;;10.33;8.33;;;;;13.90;46.42;99930.94;5058436;28;45360;-42
2022/04/22 03:31:09;;;;;;;;;9.00;9.00;;;;;13.90;46.73;99938.97;5058346;28;45435;-42
2022/04/22 03:33:35;;;;;;;;;9.67;9.67;;;;;13.87;46.39;99929.50;5058258;28;45373;-43
2022/04/22 03:36:00;;;;;;;;;11.00;9.00;;;;;13.89;46.48;99942.66;5058487;28;45336;-43
2022/04/22 03:38:27;;;;;;;;;10.33;9.67;;;;;13.90;46.46;99936.28;5058625;28;45332;-41
2022/04/22 03:40:53;;;;;;;;;11.33;10.00;;;;;13.86;46.79;99946.56;5058565;28;46210;-48
2022/04/22 03:43:20;;;;;;;;;9.33;8.00;;;;;13.86;47.15;99938.53;5058385;28;45237;-42
2022/04/22 03:45:46;;;;;;;;;11.67;9.67;;;;;13.82;47.42;99937.25;5058262;28;45392;-43
2022/04/22 03:48:13;;;;;;;;;9.00;5.00;;;;;13.82;47.37;99939.91;5058297;28;45506;-42
2022/04/22 03:50:39;;;;;;;;;11.00;10.00;;;;;13.76;47.24;99929.97;5058259;28;45445;-43
2022/04/22 03:53:06;;;;;;;;;7.00;7.00;;;;;13.78;47.19;99941.31;5057935;28;45205;-43
2022/04/22 03:55:32;;;;;;;;;8.33;8.33;;;;;13.70;47.40;99926.19;5057924;28;45248;-43
2022/04/22 03:58:10;;;;;;;;;8.67;8.67;;;;;13.72;47.20;99936.69;5058266;28;45392;-43
2022/04/22 04:00:50;;;;;;;;;11.00;9.00;;;;;13.63;47.19;99925.28;5057783;28;47330;-42
2022/04/22 04:03:18;;;;;;;;;13.67;9.00;;;;;13.68;47.05;99933.56;5057755;28;45488;-42
2022/04/22 04:05:50;;;;;;;;;14.67;8.67;;;;;13.63;47.40;99932.47;5057997;28;45281;-42
2022/04/22 04:08:17;;;;;;;;;9.67;8.67;;;;;13.61;47.52;99930.00;5058022;28;45202;-41
2022/04/22 04:16:11;;;;;;;;;8.00;8.00;;;;;13.52;48.04;99928.41;5057586;28;45526;-43
2022/04/22 04:18:38;;;;;;;;;7.67;7.67;;;;;13.51;48.14;99926.75;5057898;28;45331;-42
2022/04/22 04:23:50;;;;;;;;;9.67;9.00;;;;;13.45;48.10;99931.00;5058010;28;45439;-43
2022/04/22 04:26:17;;;;;;;;;14.00;8.33;;;;;13.42;47.80;99925.22;5057802;28;45437;-43
2022/04/22 04:28:44;;;;;;;;;8.00;8.00;;;;;13.40;47.87;99917.41;5057866;28;45342;-43
2022/04/22 04:31:13;;;;;;;;;6.33;6.33;;;;;13.39;47.58;99920.22;5057341;28;47242;-43
2022/04/22 04:33:40;;;;;;;;;10.33;8.67;;;;;13.34;47.47;99917.28;5057368;28;45374;-43
2022/04/22 04:36:10;;;;;;;;;8.00;8.00;;;;;13.32;48.14;99914.00;5057489;28;45279;-43
2022/04/22 04:38:40;;;;;;;;;9.33;8.33;;;;;13.30;48.20;99913.31;5057433;28;45441;-42
2022/04/22 04:41:08;;;;;;;;;14.00;12.33;;;;;13.28;47.92;99912.69;5057120;28;45457;-43
2022/04/22 04:43:34;;;;;;;;;9.00;8.00;;;;;13.26;48.65;99912.03;5057194;28;45425;-42
2022/04/22 04:45:59;;;;;;;;;15.67;9.33;;;;;13.25;48.94;99923.75;5057202;28;45447;-42
2022/04/22 04:48:24;;;;;;;;;10.33;9.00;;;;;13.14;49.00;99903.63;5057564;28;45159;-43
2022/04/22 04:50:51;;;;;;;;;15.33;10.00;;;;;13.21;49.01;99918.72;5055742;28;45318;-42
2022/04/22 04:53:18;;;;;;;;;13.00;12.00;;;;;13.18;48.64;99919.09;5057315;28;45323;-42
2022/04/22 04:55:44;;;;;;;;;9.00;9.00;;;;;13.16;49.04;99918.47;5057130;28;45265;-43
2022/04/22 04:58:10;;;;;;;;;14.33;12.33;;;;;13.18;49.29;99918.25;5057148;28;45407;-43
2022/04/22 05:00:36;;;;;;;;;12.67;10.33;;;;;13.16;49.07;99912.28;5056902;28;45275;-42
2022/04/22 05:03:01;;;;;;;;;8.00;8.00;;;;;13.16;48.95;99906.94;5056785;28;45372;-42
2022/04/22 05:05:27;;;;;;;;;10.00;9.00;;;;;13.15;49.08;99905.31;5057192;28;45866;-42
2022/04/22 05:07:56;;;;;;;;;14.00;8.67;;;;;13.12;48.58;99903.81;5057142;28;45250;-43
2022/04/22 05:10:22;;;;;;;;;14.33;11.33;;;;;13.10;48.83;99900.47;5056813;28;47194;-42
2022/04/22 05:12:48;;;;;;;;;16.67;10.00;;;;;13.11;49.81;99904.84;5056743;28;45262;-44
2022/04/22 05:15:17;;;;;;;;;10.00;9.00;;;;;13.15;48.03;99899.97;5056644;28;45222;-43
2022/04/22 05:17:43;;;;;;;;;10.67;8.33;;;;;13.14;48.77;99904.44;5056993;28;45487;-43
2022/04/22 05:20:10;;;;;;;;;11.67;9.00;;;;;13.12;49.19;99903.00;5056829;28;47238;-42
2022/04/22 05:22:36;;;;;;;;;12.00;12.00;;;;;13.11;48.87;99902.16;5056626;28;45324;-43
2022/04/22 05:25:02;;;;;;;;;14.00;10.00;;;;;13.12;49.24;99909.16;5056680;28;45239;-43
2022/04/22 05:27:27;;;;;;;;;16.67;12.67;;;;;13.12;49.53;99903.00;5055815;28;45301;-41
2022/04/22 05:32:36;;;;;;;;;10.33;10.00;;;;;13.12;49.22;99908.31;5056614;28;45233;-43
2022/04/22 05:35:06;;;;;;;;;12.33;12.00;;;;;13.13;50.14;99910.81;5056641;28;45721;-43
2022/04/22 05:37:51;;;;;;;;;14.67;11.33;;;;;13.13;49.75;99904.63;5056775;28;45321;-43
2022/04/22 05:40:22;;;;;;;;;11.67;10.67;;;;;13.08;49.09;99899.84;5056197;28;47368;-43
2022/04/22 05:42:49;;;;;;;;;13.00;10.67;;;;;13.13;50.32;99905.47;5056202;28;45332;-42
2022/04/22 05:45:15;;;;;;;;;13.00;10.67;;;;;13.16;49.50;99907.78;5056536;28;45355;-43
2022/04/22 05:47:41;;;;;;;;;15.67;13.33;;;;;13.16;49.54;99907.78;5058885;28;45439;-43
2022/04/22 05:50:09;;;;;;;;;17.67;13.33;;;;;13.17;49.84;99906.75;5059919;28;47179;-44
2022/04/22 05:52:35;;;;;;;;;12.67;12.00;;;;;13.17;49.75;99906.75;5059807;28;45357;-42
2022/04/22 05:55:04;;;;;;;;;15.33;10.00;;;;;13.21;50.12;99910.72;5059893;28;45433;-43
2022/04/22 05:57:30;;;;;;;;;11.67;11.67;;;;;13.21;49.66;99910.72;5060340;28;45587;-42
2022/04/22 05:59:56;;;;;;;;;14.00;11.00;;;;;13.25;50.55;99918.41;5059476;28;45454;-42
2022/04/22 06:02:24;;;;;;;;;11.33;11.33;;;;;13.31;49.98;99917.66;5059708;28;45384;-44
2022/04/22 06:04:50;;;;;;;;;18.33;11.33;;;;;13.31;50.37;99917.66;5059992;28;45230;-44
2022/04/22 06:07:16;;;;;;;;;14.33;12.00;;;;;13.35;50.26;99932.28;5059724;28;45376;-43
2022/04/22 06:12:25;;;;;;;;;16.00;12.67;;;;;13.46;49.92;99929.16;5059626;28;45242;-43
2022/04/22 06:14:53;;;;;;;;;12.33;10.33;;;;;13.50;49.96;99930.47;5059626;28;45391;-43
2022/04/22 06:17:18;;;;;;;;;15.00;8.67;;;;;13.56;47.96;99927.03;5059653;28;45157;-43
2022/04/22 06:19:44;;;;;;;;;14.00;12.33;;;;;13.60;50.20;99922.16;5059444;28;45143;-44
2022/04/22 06:22:09;;;;;;;;;17.00;14.00;;;;;13.32;49.58;99872.06;5059550;28;45253;-42
2022/04/22 06:24:34;;;;;;;;;15.00;11.67;;;;;13.68;49.47;99925.53;5059733;28;45426;-42
2022/04/22 06:27:00;;;;;;;;;11.67;9.00;;;;;13.72;49.78;99917.97;5059636;28;45389;-43
2022/04/22 06:29:26;;;;;;;;;13.67;12.00;;;;;13.65;49.71;99903.69;5059331;28;46247;-43
2022/04/22 06:31:51;;;;;;;;;13.00;10.00;;;;;13.70;50.16;99888.78;5059167;28;45342;-42
2022/04/22 06:34:17;;;;;;;;;19.33;15.00;;;;;13.86;49.21;99902.91;5059228;28;45329;-44
2022/04/22 06:36:43;;;;;;;;;15.00;11.00;;;;;13.83;48.48;99893.44;5059605;28;45498;-43
2022/04/22 06:39:08;;;;;;;;;19.67;12.33;;;;;14.00;48.58;99915.44;5058940;28;46053;-44
2022/04/22 06:47:04;;;;;;;;;16.67;14.00;;;;;14.04;48.88;99879.28;5059305;28;45389;-42
2022/04/22 06:49:30;;;;;;;;;11.67;9.67;;;;;14.28;48.90;99914.69;5058899;28;45464;-41
2022/04/22 06:51:56;;;;;;;;;14.33;13.67;;;;;14.33;48.57;99909.59;5058854;28;45302;-44
2022/04/22 06:54:21;;;;;;;;;17.67;15.67;;;;;14.45;48.22;99911.56;5059229;28;45448;-42
2022/04/22 06:56:49;;;;;;;;;20.33;13.33;;;;;14.54;48.22;99912.31;5059252;28;45269;-43
2022/04/22 06:59:19;;;;;;;;;17.67;13.67;;;;;14.67;47.78;99909.72;5057450;28;47200;-42
2022/04/22 07:01:45;;;;;;;;;15.00;13.33;;;;;14.86;48.12;99912.75;5058660;28;45348;-44
2022/04/22 07:04:10;;;;;;;;;15.67;15.67;;;;;15.42;47.23;99907.31;5058746;28;45342;-41
2022/04/22 07:06:36;;;;;;;;;15.00;14.67;;;;;16.56;44.89;99898.56;5059188;28;45351;-43
2022/04/22 07:09:02;;;;;;;;;17.00;14.33;;;;;17.89;42.66;99904.50;5058712;28;45471;-43
2022/04/22 07:11:29;;;;;;;;;16.33;12.00;;;;;18.98;40.70;99899.81;5058760;28;45206;-43
2022/04/22 07:13:59;;;;;;;;;14.33;14.00;;;;;19.79;39.06;99893.31;5058861;28;45208;-42
2022/04/22 07:16:25;;;;;;;;;16.33;14.00;;;;;20.53;37.04;99883.97;5058896;28;45402;-42
2022/04/22 07:18:55;;;;;;;;;11.00;11.00;;;;;21.11;37.39;99891.28;5058484;28;46421;-45
2022/04/22 07:21:23;;;;;;;;;17.67;14.00;;;;;21.40;35.98;99861.59;5048508;28;45505;-43
2022/04/22 07:23:50;;;;;;;;;13.33;13.33;;;;;21.75;34.56;99833.59;5051516;28;45612;-44
2022/04/22 07:26:17;;;;;;;;;10.67;10.00;;;;;22.55;34.65;99882.16;5051984;28;45505;-44
2022/04/22 07:28:46;;;;;;;;;15.00;14.33;;;;;22.90;33.24;99884.63;5067371;28;45339;-43
2022/04/22 07:31:12;;;;;;;;;11.67;9.33;;;;;23.25;33.38;99875.34;5052388;28;46366;-42
2022/04/22 07:33:38;;;;;;;;;16.67;14.67;;;;;23.59;32.48;99892.34;5054692;28;45391;-43
2022/04/22 07:36:03;;;;;;;;;17.00;13.67;;;;;23.69;32.08;99883.53;5051432;28;45465;-43
2022/04/22 07:38:29;;;;;;;;;16.33;13.00;;;;;23.69;31.95;99878.09;5051020;28;45443;-43
2022/04/22 07:40:54;;;;;;;;;17.25;15.25;;;;;23.59;31.48;99878.75;5052554;28;45460;-43
2022/04/22 07:48:56;;;;;;;;;11.50;11.50;;;;;23.59;32.11;99873.31;5054746;28;45770;-44
2022/04/22 07:51:24;;;;;;;;;15.50;13.50;;;;;23.84;31.44;99875.53;5054787;28;45517;-42
2022/04/22 07:53:49;;;;;;;;;13.00;11.50;;;;;23.80;31.95;99858.13;5054442;28;45464;-42
2022/04/22 07:56:15;;;;;;;;;12.75;11.50;;;;;23.78;30.83;99862.19;5055216;28;45922;-42
2022/04/22 07:58:40;;;;;;;;;17.00;14.50;;;;;24.11;30.62;99867.41;5054731;28;45821;-41
2022/04/22 08:01:06;;;;;;;;;15.50;11.00;;;;;24.41;32.66;99868.78;5054461;28;45491;-43
2022/04/22 08:03:32;;;;;;;;;13.50;12.50;;;;;24.66;30.05;99872.81;5054881;28;46059;-43
2022/04/22 08:05:57;;;;;;;;;12.75;11.50;;;;;24.66;30.35;99829.28;5055338;28;45451;-43
2022/04/22 08:08:24;;;;;;;;;12.75;12.00;;;;;25.18;32.05;99877.50;5055181;28;45795;-43
2022/04/22 08:10:49;;;;;;;;;12.40;12.40;;;;;25.38;30.53;99874.88;5053742;28;45449;-42
2022/04/22 08:13:15;;;;;;;;;14.25;13.50;;;;;25.70;29.35;99869.28;5055903;28;45376;-43
2022/04/22 08:15:40;;;;;;;;;14.25;12.75;;;;;26.23;29.65;99880.06;5055828;28;45523;-42
2022/04/22 08:18:06;;;;;;;;;11.50;11.50;;;;;27.25;26.55;99877.25;5055938;28;46043;-42
2022/04/22 08:20:33;;;;;;;;;13.25;11.25;;;;;28.87;24.72;99866.41;5055333;28;45751;-43
2022/04/22 08:23:02;;;;;;;;;10.00;10.00;;;;;30.60;23.98;99862.47;5056136;28;45447;-43
2022/04/22 08:25:28;;;;;;;;;12.00;12.00;;;;;32.00;21.37;99855.56;5056039;28;45209;-45
2022/04/22 08:27:54;;;;;;;;;9.00;9.00;;;;;33.02;20.19;99850.25;5055893;28;46303;-44
2022/04/22 08:30:20;;;;;;;;;14.40;12.00;;;;;33.90;19.33;99847.38;5055906;28;45399;-42
2022/04/22 08:32:46;;;;;;;;;9.75;9.25;;;;;34.67;19.17;99842.94;5056074;28;45792;-42
2022/04/22 08:35:11;;;;;;;;;14.00;12.25;;;;;35.24;20.41;99848.09;5055446;28;45348;-42
2022/04/22 08:37:37;;;;;;;;;12.00;10.25;;;;;35.85;18.11;99839.41;5056161;28;45490;-40
2022/04/22 08:40:07;;;;;;;;;14.00;10.00;;;;;36.26;16.87;99832.25;5055159;28;45581;-42
2022/04/22 08:42:37;;;;;;;;;11.00;10.00;;;;;36.79;16.13;99835.25;5056259;28;45325;-44
2022/04/22 08:45:03;;;;;;;;;14.00;10.00;;;;;37.47;15.62;99830.00;5056473;28;45538;-43
2022/04/22 08:50:31;;;;;;;;;11.20;9.80;;;;;38.78;15.75;99825.81;4994232;28;45474;-41
2022/04/22 08:53:07;;;;;;;;;11.40;9.80;;;;;39.29;13.65;99825.88;4994214;28;45607;-41
2022/04/22 08:55:33;;;;;;;;;9.40;9.00;;;;;39.76;15.46;99827.72;5010822;28;45386;-42
2022/04/22 08:58:05;;;;;;;;;11.20;9.80;;;;;40.09;14.00;99825.22;5012485;28;46169;-41
2022/04/22 09:00:34;;;;;;;;;10.40;8.60;;;;;40.42;14.42;99820.28;5013013;28;45532;-42
2022/04/22 09:02:59;;;;;;;;;11.20;10.20;;;;;40.65;12.90;99826.69;5013418;28;45492;-42
2022/04/22 09:05:26;;;;;;;;;7.00;7.00;;;;;40.99;14.01;99838.84;5012457;28;45477;-43
2022/04/22 09:07:52;;;;;;;;;10.40;9.00;;;;;41.40;14.23;99829.94;5012665;28;46134;-42
2022/04/22 09:10:19;;;;;;;;;8.20;8.00;;;;;41.56;13.04;99822.97;5004259;28;45649;-42
2022/04/22 09:12:55;;;;;;;;;12.00;9.60;;;;;41.70;12.69;99813.19;4993286;28;45508;-42
2022/04/22 09:15:23;;;;;;;;;12.00;8.60;;;;;42.04;12.39;99816.81;5000743;28;45422;-43
2022/04/22 09:17:48;;;;;;;;;13.40;10.80;;;;;42.35;11.79;99819.19;5012941;28;45462;-43
2022/04/22 09:20:15;;;;;;;;;9.25;9.00;;;;;42.16;11.50;99815.75;5003414;28;45436;-43
2022/04/22 09:22:41;;;;;;;;;7.60;6.00;;;;;42.35;11.63;99807.16;5010287;28;45445;-42
2022/04/22 09:25:06;;;;;;;;;10.00;7.50;;;;;42.66;12.22;99819.88;5044997;28;45489;-44
2022/04/22 09:27:43;;;;;;;;;10.00;8.50;;;;;42.74;10.99;99809.56;5055305;28;45449;-42
2022/04/22 09:30:11;;;;;;;;;9.20;7.60;;;;;42.85;11.51;99811.22;5055535;28;45274;-43
2022/04/22 09:32:39;;;;;;;;;7.80;7.00;;;;;43.07;11.04;99803.06;5055055;28;45578;-43
2022/04/22 09:35:08;;;;;;;;;7.80;7.80;;;;;43.24;11.98;99804.34;5055000;27;45454;-44
2022/04/22 09:43:24;;;;;;;;;8.40;8.40;;;;;43.23;10.93;99814.72;5055375;28;45452;-42
2022/04/22 09:45:53;;;;;;;;;7.00;7.00;;;;;43.30;11.44;99809.19;5055090;28;45340;-43
2022/04/22 09:48:20;;;;;;;;;7.20;7.20;;;;;43.55;11.91;99800.94;5054804;28;45936;-41
2022/04/22 09:50:52;;;;;;;;;6.40;6.40;;;;;43.84;10.91;99809.47;5054760;28;45593;-42
2022/04/22 09:53:27;;;;;;;;;7.80;7.00;;;;;44.32;11.53;99798.81;5056684;28;45435;-42
2022/04/22 09:55:53;;;;;;;;;6.80;5.60;;;;;44.52;11.19;99801.25;5056489;28;45566;-42
2022/04/22 09:58:23;;;;;;;;;7.00;5.25;;;;;44.35;10.21;99802.84;5056332;28;45892;-42
2022/04/22 10:00:55;;;;;;;;;8.40;7.60;;;;;44.10;9.74;99793.56;5056589;28;45232;-44
2022/04/22 10:03:21;;;;;;;;;9.00;7.00;;;;;44.38;9.88;99796.44;5056471;28;45360;-44
2022/04/22 10:05:50;;;;;;;;;4.00;4.00;;;;;44.82;10.17;99786.84;5056535;28;45203;-44
2022/04/22 10:08:19;;;;;;;;;8.20;5.60;;;;;44.84;9.81;99795.66;5056125;28;45954;-45
2022/04/22 10:10:46;;;;;;;;;8.60;7.60;;;;;44.77;9.70;99787.25;5056178;27;45446;-43
2022/04/22 10:13:15;;;;;;;;;6.80;5.80;;;;;44.84;9.61;99789.22;5056308;28;45364;-44
2022/04/22 10:15:41;;;;;;;;;7.80;7.40;;;;;44.92;9.54;99769.16;5056358;27;45484;-42
2022/04/22 10:18:09;;;;;;;;;6.00;6.00;;;;;44.76;9.29;99782.84;5056088;28;46209;-46
2022/04/22 10:20:36;;;;;;;;;6.60;6.40;;;;;44.60;9.52;99785.22;5055789;28;45340;-42
2022/04/22 10:23:03;;;;;;;;;7.80;6.20;;;;;44.75;9.25;99778.41;5056149;28;45246;-43
2022/04/22 10:25:30;;;;;;;;;8.60;6.00;;;;;44.96;10.07;99786.00;5056270;28;45290;-44
2022/04/22 10:27:57;;;;;;;;;6.60;5.60;;;;;44.95;9.59;99778.81;5055908;28;46674;-44
2022/04/22 10:30:24;;;;;;;;;5.00;4.00;;;;;45.09;9.17;99778.00;5055711;28;45401;-43
2022/04/22 10:32:50;;;;;;;;;6.20;6.20;;;;;44.36;9.55;99773.59;5057074;28;45463;-42
2022/04/22 10:35:16;;;;;;;;;7.20;7.20;;;;;42.85;10.08;99765.66;5059434;28;45450;-44
2022/04/22 10:37:41;;;;;;;;;6.00;5.25;;;;;41.83;10.73;99767.09;5059454;28;45316;-43
2022/04/22 10:40:27;;;;;;;;;7.00;5.75;;;;;41.27;10.51;99782.69;5059353;28;45327;-42
2022/04/22 10:42:58;;;;;;;;;5.00;4.40;;;;;42.12;10.85;99782.97;5059225;28;45293;-42
2022/04/22 10:48:18;;;;;;;;;4.00;4.00;;;;;43.22;10.22;99771.13;5059148;28;45737;-45
2022/04/22 10:50:58;;;;;;;;;6.00;6.00;;;;;43.32;10.02;99778.81;5059058;28;45331;-42
2022/04/22 10:53:25;;;;;;;;;14.00;10.00;;;;;43.59;10.13;99768.16;5059127;28;45373;-43
2022/04/22 10:55:51;;;;;;;;;7.60;6.00;;;;;43.92;9.69;99754.28;5059408;28;45442;-42
2022/04/22 10:58:16;;;;;;;;;8.00;7.75;;;;;43.82;9.84;99769.81;5058965;28;45309;-43
2022/04/22 11:00:49;;;;;;;;;5.00;4.75;;;;;42.96;9.88;99774.94;5058913;28;45365;-42
2022/04/22 11:03:16;;;;;;;;;11.00;8.40;;;;;43.08;9.66;99755.06;5059037;28;45229;-44
2022/04/22 11:05:48;;;;;;;;;7.00;6.20;;;;;43.30;10.41;99750.38;5059018;28;45484;-43
2022/04/22 11:08:17;;;;;;;;;5.20;5.20;;;;;43.20;10.17;99755.94;5058769;28;45418;-42
2022/04/22 11:10:46;;;;;;;;;8.00;8.00;;;;;42.95;10.81;99745.38;5058929;28;45313;-42
2022/04/22 11:13:34;;;;;;;;;5.00;5.00;;;;;43.00;9.91;99752.59;5058940;28;45223;-42
2022/04/22 11:16:29;;;;;;;;;5.60;5.60;;;;;43.02;10.36;99741.81;5058942;28;45479;-42
2022/04/22 11:19:19;;;;;;;;;6.40;5.60;;;;;42.29;10.44;99752.81;5058687;28;46220;-41
2022/04/22 11:21:47;;;;;;;;;6.20;4.20;;;;;41.87;10.79;99751.16;5058573;28;45367;-42
2022/04/22 11:24:28;;;;;;;;;6.60;5.80;;;;;41.49;10.47;99743.91;5058753;28;45384;-41
2022/04/22 11:27:12;;;;;;;;;1.00;1.00;;;;;41.23;11.06;99739.16;5058956;28;45397;-43
2022/04/22 11:29:43;;;;;;;;;7.60;5.80;;;;;41.28;10.49;99739.63;5057439;28;46549;-42
2022/04/22 11:32:18;;;;;;;;;4.60;4.60;;;;;41.24;11.06;99735.97;5049590;28;45429;-42
2022/04/22 11:35:05;;;;;;;;;7.00;5.60;;;;;41.40;11.19;99740.59;5055585;28;45518;-44
2022/04/22 11:37:30;;;;;;;;;5.20;4.40;;;;;41.49;10.66;99727.16;5055863;28;45592;-42
2022/04/22 11:39:55;;;;;;;;;3.50;3.50;;;;;41.09;10.96;99737.78;5055255;28;45936;-41
2022/04/22 11:42:22;;;;;;;;;7.50;5.00;;;;;40.42;11.53;99736.69;5056316;28;45769;-44
2022/04/22 11:45:09;;;;;;;;;6.40;5.80;;;;;40.17;11.27;99728.69;5055647;28;45416;-42
2022/04/22 11:47:35;;;;;;;;;8.00;7.00;;;;;39.75;11.61;99740.59;5057308;27;45532;-44
2022/04/22 11:50:00;;;;;;;;;5.50;5.50;;;;;39.09;11.73;99733.97;5056724;28;46655;-42
2022/04/22 11:52:29;;;;;;;;;4.25;4.25;;;;;38.36;12.49;99734.59;5056821;28;45518;-42
2022/04/22 11:55:03;;;;;;;;;8.00;6.40;;;;;36.95;13.04;99726.16;5056548;28;45474;-43
2022/04/22 11:57:37;;;;;;;;;7.00;5.40;;;;;34.72;15.15;99739.75;5056941;28;45417;-43
2022/04/22 12:05:49;;;;;;;;;7.40;5.20;;;;;29.99;17.80;99724.38;5056619;28;45426;-42
2022/04/22 12:08:15;;;;;;;;;7.00;5.00;;;;;28.97;18.94;99723.94;5056548;28;45495;-42
2022/04/22 12:10:43;;;;;;;;;7.80;6.00;;;;;28.02;19.69;99735.56;5056511;28;47083;-42
2022/04/22 12:13:09;;;;;;;;;5.80;5.80;;;;;27.40;21.34;99720.72;5056137;28;45286;-42
2022/04/22 12:15:39;;;;;;;;;7.60;6.40;;;;;26.91;21.58;99713.31;5056248;28;45361;-42
2022/04/22 12:18:04;;;;;;;;;6.20;5.00;;;;;26.40;21.28;99719.72;5056410;28;45609;-41
2022/04/22 12:20:30;;;;;;;;;8.00;5.75;;;;;25.78;21.96;99726.31;5054617;28;46494;-42